Time;durP1;ratioP1;P1;durP2;ratioP2;P2;SDS_P1;SDS_P2;PMS_P1;PMS_P2;Temp;Humidity;BMP_temperature;BMP_pressure;BME280_temperature;BME280_humidity;BME280_pressure;Samples;Min_cycle;Max_cycle;Signal;HPM_P1;HPM_P2
2022/04/20 00:02:16;;;;;;;3.38;3.08;;;7.90;83.60;;;;;;5032087;28;20201;-70
2022/04/20 00:04:43;;;;;;;4.78;3.50;;;7.80;84.20;;;;;;5031242;28;20206;-69
2022/04/20 00:07:10;;;;;;;4.78;3.20;;;7.80;84.50;;;;;;5031159;28;20226;-70
2022/04/20 00:09:37;;;;;;;3.83;3.53;;;7.70;85.00;;;;;;5030685;28;20676;-69
2022/04/20 00:12:06;;;;;;;4.93;4.35;;;7.70;85.20;;;;;;5031330;28;20217;-70
2022/04/20 00:14:33;;;;;;;5.03;3.75;;;7.70;85.40;;;;;;5031492;28;20567;-70
2022/04/20 00:16:59;;;;;;;4.15;3.72;;;7.70;86.10;;;;;;5030891;28;20217;-70
2022/04/20 00:19:26;;;;;;;4.38;3.65;;;7.60;86.70;;;;;;5030584;28;20232;-69
2022/04/20 00:21:53;;;;;;;4.35;3.75;;;7.60;86.50;;;;;;5031012;28;20202;-70
2022/04/20 00:24:19;;;;;;;3.95;3.60;;;7.60;87.00;;;;;;5031027;28;20660;-69
2022/04/20 00:26:46;;;;;;;4.78;4.00;;;7.60;87.10;;;;;;5030742;28;20575;-69
2022/04/20 00:29:14;;;;;;;4.40;3.97;;;7.60;87.50;;;;;;5060012;22;20240;-95
2022/04/20 00:31:42;;;;;;;3.75;3.45;;;7.50;87.60;;;;;;5050445;28;20222;-93
2022/04/20 00:34:08;;;;;;;4.10;3.70;;;7.50;87.80;;;;;;5034285;28;20221;-93
2022/04/20 00:36:35;;;;;;;3.97;3.47;;;7.50;88.30;;;;;;5049057;22;20230;-72
2022/04/20 00:39:02;;;;;;;4.20;3.90;;;7.40;87.90;;;;;;5053418;28;20664;-71
2022/04/20 00:41:29;;;;;;;3.70;3.30;;;7.40;88.80;;;;;;5054013;28;20208;-73
2022/04/20 00:43:56;;;;;;;4.05;3.70;;;7.30;88.90;;;;;;5054098;28;20205;-72
2022/04/20 00:46:25;;;;;;;4.32;3.63;;;7.20;89.70;;;;;;5052925;28;20225;-72
2022/04/20 00:48:53;;;;;;;4.28;3.88;;;7.20;89.90;;;;;;5052368;28;20311;-72
2022/04/20 00:51:20;;;;;;;3.63;3.33;;;7.10;90.00;;;;;;5053088;28;20201;-73
2022/04/20 00:53:46;;;;;;;4.88;4.25;;;7.00;90.20;;;;;;5052954;28;20207;-72
2022/04/20 00:56:13;;;;;;;5.47;3.95;;;6.90;90.40;;;;;;5052909;28;20212;-72
2022/04/20 00:58:42;;;;;;;5.53;4.50;;;6.90;90.50;;;;;;5052238;28;20201;-72
2022/04/20 01:01:09;;;;;;;6.50;4.20;;;6.80;90.90;;;;;;5052775;28;20204;-72
2022/04/20 01:03:37;;;;;;;6.15;4.35;;;6.70;91.00;;;;;;5052683;28;20625;-72
2022/04/20 01:06:06;;;;;;;6.18;3.70;;;6.60;91.00;;;;;;5052755;28;20201;-72
2022/04/20 01:08:33;;;;;;;5.80;3.97;;;6.50;91.10;;;;;;5051344;28;20266;-73
2022/04/20 01:10:59;;;;;;;3.97;3.55;;;6.40;91.50;;;;;;5052752;28;20197;-72
2022/04/20 01:13:26;;;;;;;4.13;3.80;;;6.30;91.40;;;;;;5052591;28;20197;-72
2022/04/20 01:15:53;;;;;;;4.25;3.85;;;6.20;91.40;;;;;;5052366;28;20205;-72
2022/04/20 01:18:20;;;;;;;4.32;3.95;;;6.10;91.50;;;;;;5051763;28;20217;-72
2022/04/20 01:20:48;;;;;;;6.22;4.15;;;6.00;92.00;;;;;;5052420;28;20229;-72
2022/04/20 01:23:15;;;;;;;4.35;3.95;;;6.00;92.00;;;;;;5052341;28;20279;-72
2022/04/20 01:25:41;;;;;;;4.38;3.97;;;5.90;92.10;;;;;;5052248;28;20201;-72
2022/04/20 01:28:09;;;;;;;4.15;3.75;;;5.80;92.30;;;;;;5051616;28;20236;-74
2022/04/20 01:30:36;;;;;;;4.65;4.13;;;5.80;92.50;;;;;;5052316;28;20197;-72
2022/04/20 01:33:03;;;;;;;4.32;3.92;;;5.70;92.70;;;;;;5052304;28;20208;-72
2022/04/20 01:35:30;;;;;;;3.95;3.55;;;5.60;93.00;;;;;;5052084;28;20263;-72
2022/04/20 01:37:58;;;;;;;6.97;4.15;;;5.60;93.00;;;;;;5051964;28;20225;-74
2022/04/20 01:40:24;;;;;;;5.80;4.00;;;5.50;93.10;;;;;;5052543;28;20209;-72
2022/04/20 01:42:51;;;;;;;4.63;4.15;;;5.50;93.00;;;;;;5052047;28;20201;-73
2022/04/20 01:45:18;;;;;;;4.80;4.30;;;5.50;92.90;;;;;;5052191;28;20660;-73
2022/04/20 01:47:45;;;;;;;4.60;4.20;;;5.50;93.30;;;;;;5052104;28;20240;-72
2022/04/20 01:50:11;;;;;;;4.75;4.10;;;5.50;93.30;;;;;;5051869;28;20676;-74
2022/04/20 01:52:38;;;;;;;7.10;4.70;;;5.40;93.30;;;;;;5052180;28;20609;-73
2022/04/20 01:55:07;;;;;;;3.90;3.60;;;5.40;93.50;;;;;;5052353;28;20201;-72
2022/04/20 01:57:34;;;;;;;5.18;4.28;;;5.40;93.40;;;;;;5052828;28;20225;-72
2022/04/20 02:00:01;;;;;;;6.53;4.20;;;5.40;93.70;;;;;;5052015;28;20370;-72
2022/04/20 02:02:35;;;;;;;6.55;4.50;;;5.30;93.60;;;;;;5051790;28;20201;-72
2022/04/20 02:05:03;;;;;;;5.13;4.60;;;5.30;93.70;;;;;;5051844;28;20600;-72
2022/04/20 02:07:31;;;;;;;5.00;4.07;;;5.30;94.30;;;;;;5051797;28;20262;-72
2022/04/20 02:09:58;;;;;;;4.78;4.30;;;5.20;94.40;;;;;;5051033;28;20232;-72
2022/04/20 02:12:26;;;;;;;5.20;4.70;;;5.20;94.60;;;;;;5051566;28;20205;-72
2022/04/20 02:14:53;;;;;;;5.13;4.38;;;5.10;94.40;;;;;;5051450;28;20251;-71
2022/04/20 02:17:20;;;;;;;4.65;4.15;;;5.10;94.60;;;;;;5051516;28;20239;-72
2022/04/20 02:19:47;;;;;;;5.60;4.05;;;5.10;94.80;;;;;;5050123;28;20212;-72
2022/04/20 02:22:14;;;;;;;5.25;4.50;;;5.00;94.70;;;;;;5051111;28;20212;-72
2022/04/20 02:24:41;;;;;;;7.13;4.53;;;4.90;94.80;;;;;;5051189;28;20204;-72
2022/04/20 02:27:09;;;;;;;4.45;4.05;;;4.80;95.10;;;;;;5051312;28;20221;-73
2022/04/20 02:29:37;;;;;;;4.82;4.32;;;4.80;95.20;;;;;;5050565;28;20275;-72
2022/04/20 02:32:04;;;;;;;5.30;4.80;;;4.70;95.40;;;;;;5051141;28;20664;-72
2022/04/20 02:34:31;;;;;;;3.97;3.67;;;4.60;95.50;;;;;;5050930;28;20212;-72
2022/04/20 02:36:58;;;;;;;4.78;4.38;;;4.60;95.60;;;;;;5051098;28;20228;-71
2022/04/20 02:39:25;;;;;;;4.70;4.30;;;4.50;96.20;;;;;;5050483;28;20587;-72
2022/04/20 02:41:53;;;;;;;4.53;4.13;;;4.50;96.00;;;;;;5050867;28;20208;-71
2022/04/20 02:44:19;;;;;;;5.50;5.00;;;4.40;96.30;;;;;;5051054;28;20580;-72
2022/04/20 02:46:48;;;;;;;6.30;4.63;;;4.30;96.40;;;;;;5050297;28;20232;-72
2022/04/20 02:49:15;;;;;;;5.13;4.72;;;4.20;96.40;;;;;;5050297;28;20221;-73
2022/04/20 02:51:42;;;;;;;4.85;4.38;;;4.20;96.50;;;;;;5050654;28;20240;-73
2022/04/20 02:54:09;;;;;;;4.93;4.40;;;4.20;96.60;;;;;;5050800;28;20201;-73
2022/04/20 02:56:35;;;;;;;4.35;3.95;;;4.20;96.80;;;;;;5050609;28;20247;-73
2022/04/20 02:59:02;;;;;;;5.95;4.65;;;4.10;96.80;;;;;;5049930;28;20225;-74
2022/04/20 03:01:30;;;;;;;4.70;4.30;;;4.10;96.80;;;;;;5050675;28;20254;-73
2022/04/20 03:03:58;;;;;;;4.40;4.00;;;4.00;96.90;;;;;;5050591;28;20295;-72
2022/04/20 03:06:25;;;;;;;4.80;4.20;;;4.00;97.00;;;;;;5050552;28;20597;-73
2022/04/20 03:08:52;;;;;;;4.93;4.20;;;3.90;97.20;;;;;;5049868;28;20224;-72
2022/04/20 03:11:19;;;;;;;5.03;4.60;;;3.90;97.40;;;;;;5050985;28;20204;-71
2022/04/20 03:13:46;;;;;;;5.55;4.32;;;3.80;97.60;;;;;;5050375;28;20752;-72
2022/04/20 03:16:13;;;;;;;5.40;4.80;;;3.80;97.70;;;;;;5050412;28;20209;-72
2022/04/20 03:18:39;;;;;;;6.45;5.65;;;3.70;97.80;;;;;;5049739;28;20213;-73
2022/04/20 03:21:07;;;;;;;5.03;4.53;;;3.70;98.00;;;;;;5050584;28;20565;-73
2022/04/20 03:23:34;;;;;;;5.63;5.05;;;3.70;98.00;;;;;;5050418;28;20204;-72
2022/04/20 03:26:01;;;;;;;5.00;4.50;;;3.60;98.10;;;;;;5050346;28;20212;-72
2022/04/20 03:28:27;;;;;;;5.50;5.00;;;3.60;98.40;;;;;;5049763;28;20267;-72
2022/04/20 03:30:54;;;;;;;5.03;4.53;;;3.60;98.60;;;;;;5050175;28;20229;-72
2022/04/20 03:33:21;;;;;;;4.85;4.13;;;3.50;98.50;;;;;;5049964;28;20212;-73
2022/04/20 03:35:49;;;;;;;5.13;4.63;;;3.50;98.70;;;;;;5050125;28;20323;-72
2022/04/20 03:38:17;;;;;;;5.22;4.75;;;3.40;99.00;;;;;;5049607;28;20321;-73
2022/04/20 03:40:45;;;;;;;4.90;4.32;;;3.40;99.20;;;;;;5050121;28;20205;-72
2022/04/20 03:43:12;;;;;;;6.65;4.80;;;3.40;99.30;;;;;;5050077;28;20201;-72
2022/04/20 03:45:39;;;;;;;5.55;4.65;;;3.40;99.30;;;;;;5050065;28;20576;-72
2022/04/20 03:48:06;;;;;;;5.75;5.13;;;3.30;99.30;;;;;;5049533;28;20322;-74
2022/04/20 03:50:32;;;;;;;6.30;5.25;;;3.30;99.30;;;;;;5050085;28;20695;-72
2022/04/20 03:52:59;;;;;;;6.05;4.70;;;3.30;99.40;;;;;;5049996;28;20565;-73
2022/04/20 03:55:27;;;;;;;5.20;4.70;;;3.20;99.60;;;;;;5050241;28;20209;-72
2022/04/20 03:57:54;;;;;;;6.72;4.85;;;3.10;99.90;;;;;;5049778;28;20232;-73
2022/04/20 04:00:23;;;;;;;8.88;5.50;;;3.10;99.90;;;;;;5049797;28;20205;-73
2022/04/20 04:02:50;;;;;;;5.38;4.88;;;3.10;99.90;;;;;;5050028;28;20205;-73
2022/04/20 04:05:16;;;;;;;5.15;4.70;;;3.10;99.90;;;;;;5049945;28;20723;-71
2022/04/20 04:07:43;;;;;;;5.40;4.90;;;3.00;99.90;;;;;;5049740;28;20567;-72
2022/04/20 04:10:10;;;;;;;5.28;4.78;;;3.00;99.90;;;;;;5049405;28;20221;-72
2022/04/20 04:12:38;;;;;;;6.40;4.55;;;3.00;99.90;;;;;;5050043;28;20208;-72
2022/04/20 04:15:07;;;;;;;5.15;4.75;;;3.10;99.90;;;;;;5049935;28;20571;-72
2022/04/20 04:17:33;;;;;;;7.00;4.85;;;3.00;99.90;;;;;;5049849;28;20274;-73
2022/04/20 04:20:00;;;;;;;5.32;4.60;;;3.00;99.90;;;;;;5049385;28;20209;-72
2022/04/20 04:22:27;;;;;;;4.75;4.30;;;2.90;99.90;;;;;;5049880;28;20217;-72
2022/04/20 04:24:54;;;;;;;6.47;4.50;;;2.90;99.90;;;;;;5049693;28;20228;-72
2022/04/20 04:27:21;;;;;;;5.43;4.80;;;2.90;99.90;;;;;;5049723;28;20217;-73
2022/04/20 04:29:49;;;;;;;5.65;5.15;;;2.80;99.90;;;;;;5049013;28;20274;-72
2022/04/20 04:32:15;;;;;;;5.00;4.55;;;2.80;99.90;;;;;;5049954;28;20205;-74
2022/04/20 04:34:42;;;;;;;4.80;4.10;;;2.80;99.90;;;;;;5049854;28;20213;-75
2022/04/20 04:37:10;;;;;;;5.93;4.93;;;2.80;99.90;;;;;;5049570;28;20232;-75
2022/04/20 04:39:36;;;;;;;4.93;4.50;;;2.80;99.90;;;;;;5049496;28;20211;-75
2022/04/20 04:42:03;;;;;;;5.10;4.70;;;2.80;99.90;;;;;;5049846;28;20288;-75
2022/04/20 04:44:32;;;;;;;5.25;4.72;;;2.80;99.90;;;;;;5051665;28;20204;-75
2022/04/20 04:49:44;;;;;;;4.82;4.43;;;2.80;99.90;;;;;;5052505;28;20239;-76
2022/04/20 04:52:12;;;;;;;5.00;4.50;;;2.80;99.90;;;;;;5053446;28;20223;-78
2022/04/20 04:54:42;;;;;;;4.70;4.30;;;2.80;99.90;;;;;;5054213;28;20205;-76
2022/04/20 04:57:11;;;;;;;5.03;4.63;;;2.80;99.90;;;;;;5053038;28;20311;-74
2022/04/20 04:59:39;;;;;;;5.97;4.72;;;2.80;99.90;;;;;;5052360;28;20288;-74
2022/04/20 05:02:08;;;;;;;4.88;4.35;;;2.80;99.90;;;;;;5053192;28;20201;-74
2022/04/20 05:04:35;;;;;;;4.90;4.45;;;2.80;99.90;;;;;;5052716;28;20204;-73
2022/04/20 05:07:02;;;;;;;5.10;4.60;;;2.90;99.90;;;;;;5052887;28;20704;-74
2022/04/20 05:09:29;;;;;;;4.32;3.80;;;3.00;99.90;;;;;;5055755;28;20221;-78
2022/04/20 05:11:55;;;;;;;4.68;4.28;;;3.10;99.90;;;;;;5055481;28;20205;-79
2022/04/20 05:14:22;;;;;;;5.35;4.40;;;3.10;99.90;;;;;;5058065;28;20226;-80
2022/04/20 05:16:50;;;;;;;4.53;4.13;;;3.10;99.90;;;;;;5057170;28;20286;-83
2022/04/20 05:19:18;;;;;;;4.30;3.90;;;3.20;99.90;;;;;;5058038;28;20193;-80
2022/04/20 05:21:45;;;;;;;4.72;4.22;;;3.30;99.90;;;;;;5056690;28;20223;-77
2022/04/20 05:24:12;;;;;;;5.15;4.25;;;3.30;99.90;;;;;;5055984;28;20201;-77
2022/04/20 05:26:40;;;;;;;6.80;5.05;;;3.40;99.90;;;;;;5051574;28;20265;-76
2022/04/20 05:29:07;;;;;;;4.00;3.60;;;3.40;99.90;;;;;;5036052;28;20210;-78
2022/04/20 05:31:34;;;;;;;4.30;3.90;;;3.50;99.90;;;;;;5036231;28;20213;-76
2022/04/20 05:34:02;;;;;;;4.45;4.05;;;3.60;99.90;;;;;;5036306;28;20198;-77
2022/04/20 05:41:39;;;;;;;4.78;4.32;;;3.70;99.90;;;;;;5032914;28;20226;-76
2022/04/20 05:42:02;;;;;;;6.47;4.68;;;4.00;99.90;;;;;;5033598;28;20196;-75
2022/04/20 05:44:29;;;;;;;4.20;3.80;;;4.10;99.90;;;;;;5039590;28;20209;-74
2022/04/20 05:46:56;;;;;;;6.10;4.57;;;4.30;99.90;;;;;;5036622;28;20241;-75
2022/04/20 05:49:22;;;;;;;4.28;3.88;;;4.40;99.90;;;;;;5036119;28;20269;-77
2022/04/20 05:51:51;;;;;;;5.30;4.40;;;4.50;99.90;;;;;;5032130;28;20206;-75
2022/04/20 05:54:18;;;;;;;4.40;4.00;;;4.60;99.90;;;;;;5031859;28;20755;-75
2022/04/20 05:56:44;;;;;;;6.70;4.63;;;4.80;99.90;;;;;;5031660;28;20221;-73
2022/04/20 05:59:11;;;;;;;4.70;3.80;;;4.90;99.70;;;;;;5035063;28;20224;-72
2022/04/20 06:01:38;;;;;;;4.60;4.10;;;5.00;98.60;;;;;;5033923;28;20205;-73
2022/04/20 06:04:05;;;;;;;4.68;4.05;;;5.20;98.10;;;;;;5031995;28;20212;-75
2022/04/20 06:06:31;;;;;;;4.18;3.78;;;5.30;97.50;;;;;;5031787;28;20229;-74
2022/04/20 06:08:59;;;;;;;8.05;4.20;;;5.40;97.40;;;;;;5031163;28;20264;-73
2022/04/20 06:11:28;;;;;;;4.47;3.80;;;5.60;96.30;;;;;;5031822;28;20293;-73
2022/04/20 06:13:55;;;;;;;4.53;4.10;;;5.70;94.70;;;;;;5031548;28;20204;-73
2022/04/20 06:16:21;;;;;;;3.30;3.00;;;5.80;94.30;;;;;;5031550;28;20221;-73
2022/04/20 06:18:48;;;;;;;4.78;4.20;;;5.80;93.90;;;;;;5030864;28;20206;-74
2022/04/20 06:21:15;;;;;;;3.95;3.60;;;5.90;94.30;;;;;;5031724;28;20565;-73
2022/04/20 06:23:41;;;;;;;4.00;3.50;;;6.00;93.90;;;;;;5031425;28;20213;-73
2022/04/20 06:26:10;;;;;;;5.53;3.25;;;6.10;94.00;;;;;;5031348;28;20212;-74
2022/04/20 06:28:37;;;;;;;4.07;3.67;;;6.10;93.10;;;;;;5031437;28;20201;-77
2022/04/20 06:31:04;;;;;;;3.92;3.45;;;6.20;93.00;;;;;;5101453;22;20221;-71
2022/04/20 06:33:31;;;;;;;6.53;4.35;;;6.30;92.60;;;;;;5046920;28;20205;-71
2022/04/20 06:36:00;;;;;;;4.28;3.88;;;6.40;92.80;;;;;;5051574;28;20228;-71
2022/04/20 06:38:26;;;;;;;4.50;3.28;;;6.50;92.90;;;;;;5051261;28;20258;-71
2022/04/20 06:40:53;;;;;;;3.80;3.30;;;6.50;92.60;;;;;;5051685;28;20681;-69
2022/04/20 06:43:22;;;;;;;3.80;3.50;;;6.60;92.50;;;;;;5051532;28;20216;-69
2022/04/20 06:45:49;;;;;;;3.35;3.15;;;6.80;92.50;;;;;;5051789;28;20220;-71
2022/04/20 06:48:15;;;;;;;3.70;3.25;;;6.90;92.80;;;;;;5050669;28;20609;-71
2022/04/20 06:50:43;;;;;;;5.75;3.92;;;6.90;92.00;;;;;;5051386;28;20229;-69
2022/04/20 06:58:41;;;;;;;5.30;3.20;;;7.00;92.00;;;;;;5050521;28;20332;-75
2022/04/20 07:01:09;;;;;;;3.90;3.50;;;7.00;92.30;;;;;;5051191;28;20312;-71
2022/04/20 07:03:36;;;;;;;4.60;3.28;;;7.20;92.40;;;;;;5051047;28;20209;-70
2022/04/20 07:06:03;;;;;;;6.70;4.32;;;7.30;91.80;;;;;;5042497;28;20201;-69
2022/04/20 07:08:31;;;;;;;4.15;3.75;;;7.30;91.70;;;;;;5024987;28;20212;-70
2022/04/20 07:10:58;;;;;;;4.53;3.50;;;7.40;92.10;;;;;;5026802;28;20222;-70
2022/04/20 07:13:25;;;;;;;4.82;3.85;;;7.50;91.90;;;;;;5026034;28;20208;-69
2022/04/20 07:15:53;;;;;;;4.40;3.85;;;7.50;91.60;;;;;;5026367;28;20584;-69
2022/04/20 07:18:20;;;;;;;4.13;3.67;;;7.60;91.40;;;;;;5026039;28;20214;-72
2022/04/20 07:20:47;;;;;;;4.63;4.13;;;7.70;90.90;;;;;;5026157;28;20780;-72
2022/04/20 07:23:14;;;;;;;3.83;3.42;;;7.70;90.90;;;;;;5026167;28;20194;-72
2022/04/20 07:25:41;;;;;;;4.97;3.80;;;7.70;91.40;;;;;;5026639;28;20217;-73
2022/04/20 07:28:09;;;;;;;4.60;4.20;;;7.70;91.00;;;;;;5025045;28;20229;-73
2022/04/20 07:30:36;;;;;;;5.10;3.63;;;7.80;90.70;;;;;;5026116;28;20260;-73
2022/04/20 07:33:05;;;;;;;4.30;3.90;;;7.80;90.70;;;;;;5026510;28;20186;-69
2022/04/20 07:35:32;;;;;;;5.53;4.20;;;7.90;91.00;;;;;;5025512;28;20205;-72
2022/04/20 07:37:59;;;;;;;5.38;4.30;;;8.00;91.20;;;;;;5025801;28;20685;-71
2022/04/20 07:40:26;;;;;;;4.63;4.00;;;8.00;89.90;;;;;;5025213;28;20197;-70
2022/04/20 07:42:54;;;;;;;6.82;4.40;;;8.00;91.00;;;;;;5025890;28;20546;-73
2022/04/20 07:45:21;;;;;;;4.72;4.22;;;8.10;90.40;;;;;;5025524;28;20202;-69
2022/04/20 07:47:48;;;;;;;4.63;4.22;;;8.10;90.80;;;;;;5025720;28;20218;-69
2022/04/20 07:50:18;;;;;;;3.83;3.47;;;8.30;90.90;;;;;;5025728;28;20226;-69
2022/04/20 07:52:47;;;;;;;4.45;4.05;;;8.40;90.10;;;;;;5024509;28;20291;-70
2022/04/20 07:55:15;;;;;;;4.68;4.28;;;8.40;88.50;;;;;;5026456;28;20209;-72
2022/04/20 07:57:42;;;;;;;3.55;3.25;;;8.40;89.80;;;;;;5024953;28;20226;-70
2022/04/20 08:00:11;;;;;;;4.25;3.85;;;8.30;88.20;;;;;;5025465;28;20240;-71
2022/04/20 08:02:38;;;;;;;5.35;4.32;;;8.40;90.20;;;;;;5025658;28;20208;-70
2022/04/20 08:05:06;;;;;;;3.90;3.60;;;8.70;90.30;;;;;;5025427;28;20293;-71
2022/04/20 08:07:34;;;;;;;4.80;4.40;;;9.00;90.10;;;;;;5025318;28;21036;-70
2022/04/20 08:10:01;;;;;;;3.65;3.35;;;9.40;90.50;;;;;;5025058;28;20225;-71
2022/04/20 08:12:29;;;;;;;6.93;3.72;;;9.70;87.90;;;;;;5025541;28;20236;-71
2022/04/20 08:14:56;;;;;;;6.50;4.00;;;10.00;86.30;;;;;;5024053;28;20208;-72
2022/04/20 08:17:23;;;;;;;4.10;3.70;;;10.30;84.70;;;;;;5025561;28;20217;-70
2022/04/20 08:19:49;;;;;;;5.25;4.38;;;10.50;83.90;;;;;;5029039;28;20200;-71
2022/04/20 08:22:16;;;;;;;6.53;4.05;;;10.70;84.10;;;;;;5030527;28;20201;-70
2022/04/20 08:24:45;;;;;;;4.75;4.20;;;10.90;82.40;;;;;;5030931;28;20194;-72
2022/04/20 08:27:12;;;;;;;4.38;3.92;;;11.20;80.00;;;;;;5030284;28;20610;-70
2022/04/20 08:29:38;;;;;;;4.53;4.13;;;11.40;79.90;;;;;;5028675;28;20252;-72
2022/04/20 08:32:06;;;;;;;3.80;3.40;;;11.70;78.70;;;;;;5030697;28;20472;-72
2022/04/20 08:34:32;;;;;;;3.63;3.33;;;11.70;76.50;;;;;;5027448;28;21004;-73
2022/04/20 08:36:59;;;;;;;4.18;3.78;;;11.70;78.40;;;;;;5029295;28;20852;-74
2022/04/20 08:39:26;;;;;;;4.50;4.10;;;11.90;78.10;;;;;;5029042;28;20297;-70
2022/04/20 08:41:56;;;;;;;4.10;3.70;;;12.00;75.90;;;;;;5029125;28;20456;-70
2022/04/20 08:44:27;;;;;;;3.83;3.53;;;12.10;78.40;;;;;;5030011;28;20467;-70
2022/04/20 08:46:55;;;;;;;4.47;3.80;;;12.40;76.00;;;;;;5029483;28;20534;-70
2022/04/20 08:49:23;;;;;;;4.40;4.00;;;12.70;76.50;;;;;;5028489;28;20463;-72
2022/04/20 08:54:35;;;;;;;6.53;3.83;;;13.20;74.10;;;;;;5029534;28;20451;-70
2022/04/20 08:57:16;;;;;;;4.37;3.97;;;13.30;75.50;;;;;;5029190;28;20472;-74
2022/04/20 08:59:44;;;;;;;3.80;3.40;;;13.10;74.40;;;;;;5028549;28;20471;-75
2022/04/20 09:02:12;;;;;;;4.50;4.00;;;13.20;75.90;;;;;;5027868;28;21075;-72
2022/04/20 09:04:39;;;;;;;3.90;3.60;;;13.90;76.80;;;;;;5030047;28;20498;-71
2022/04/20 09:07:07;;;;;;;4.53;3.23;;;14.80;73.00;;;;;;5029705;28;20488;-71
2022/04/20 09:09:34;;;;;;;3.30;3.03;;;15.30;70.60;;;;;;5028498;28;20551;-73
2022/04/20 09:12:02;;;;;;;3.70;3.40;;;15.60;70.70;;;;;;5029171;28;20483;-75
2022/04/20 09:14:31;;;;;;;3.20;2.90;;;16.50;72.60;;;;;;5029364;28;20547;-75
2022/04/20 09:16:57;;;;;;;3.77;3.33;;;16.80;70.40;;;;;;5028363;28;20480;-76
2022/04/20 09:19:25;;;;;;;3.77;3.47;;;17.50;69.20;;;;;;5027633;28;20460;-73
2022/04/20 09:21:52;;;;;;;3.50;3.20;;;17.50;65.30;;;;;;5026806;28;20461;-72
2022/04/20 09:24:19;;;;;;;4.10;3.70;;;17.40;65.00;;;;;;5029214;28;21003;-73
2022/04/20 09:26:53;;;;;;;4.70;3.40;;;16.90;66.10;;;;;;5028458;28;20493;-72
2022/04/20 09:29:20;;;;;;;4.03;3.73;;;17.10;67.10;;;;;;5027200;28;20836;-70
2022/04/20 09:31:50;;;;;;;3.87;3.53;;;16.80;64.30;;;;;;5028527;28;20514;-73
2022/04/20 09:34:53;;;;;;;4.70;4.20;;;16.50;66.00;;;;;;5029356;28;21037;-74
2022/04/20 09:37:21;;;;;;;5.33;3.90;;;16.60;68.00;;;;;;5028825;28;20546;-72
2022/04/20 09:39:50;;;;;;;5.43;3.67;;;16.90;65.90;;;;;;5028604;28;20492;-73
2022/04/20 09:42:18;;;;;;;3.73;3.43;;;16.60;63.20;;;;;;5029103;28;20547;-72
2022/04/20 09:44:54;;;;;;;3.80;3.40;;;17.30;65.30;;;;;;5029033;28;20493;-70
2022/04/20 09:50:09;;;;;;;5.43;3.67;;;18.10;63.60;;;;;;5028130;28;20448;-74
2022/04/20 09:52:37;;;;;;;4.63;3.10;;;18.30;60.20;;;;;;5027884;28;20471;-74
2022/04/20 09:55:06;;;;;;;14.53;3.50;;;18.00;63.10;;;;;;5028048;28;20468;-71
2022/04/20 09:57:34;;;;;;;3.83;3.20;;;18.30;63.80;;;;;;5027889;28;21101;-70
2022/04/20 10:00:01;;;;;;;3.90;2.80;;;18.50;64.30;;;;;;5026717;28;20555;-69
2022/04/20 10:02:30;;;;;;;3.17;2.90;;;19.10;64.60;;;;;;5028602;28;20460;-69
2022/04/20 10:04:58;;;;;;;4.50;2.53;;;19.50;62.50;;;;;;5029052;28;20959;-69
2022/04/20 10:07:25;;;;;;;3.60;3.00;;;19.60;61.50;;;;;;5027768;28;20495;-69
2022/04/20 10:09:52;;;;;;;3.40;2.93;;;19.80;59.30;;;;;;5027637;28;20476;-68
2022/04/20 10:12:19;;;;;;;4.30;3.10;;;20.60;60.70;;;;;;5028552;28;20484;-71
2022/04/20 10:17:44;;;;;;;3.47;3.00;;;20.60;58.60;;;;;;5030751;28;21008;-71
2022/04/20 10:20:11;;;;;;;4.70;2.97;;;20.60;60.50;;;;;;5030704;28;20495;-71
2022/04/20 10:22:39;;;;;;;3.90;2.70;;;21.50;60.50;;;;;;5030788;28;20963;-69
2022/04/20 10:25:07;;;;;;;3.30;3.00;;;22.30;58.70;;;;;;5030742;28;20456;-69
2022/04/20 10:27:44;;;;;;;3.23;2.93;;;22.80;58.70;;;;;;5030408;28;20476;-70
2022/04/20 10:30:16;;;;;;;3.57;3.27;;;23.60;57.50;;;;;;5030531;28;20506;-69
2022/04/20 10:32:51;;;;;;;3.27;2.97;;;22.60;55.70;;;;;;5029811;28;20497;-69
2022/04/20 10:35:18;;;;;;;3.40;3.10;;;21.70;56.90;;;;;;5030116;28;20463;-69
2022/04/20 10:38:09;;;;;;;4.37;3.23;;;21.90;58.90;;;;;;5030328;28;20496;-69
2022/04/20 10:40:54;;;;;;;3.23;2.93;;;22.10;56.70;;;;;;5025312;28;20456;-70
2022/04/20 10:43:22;;;;;;;3.27;3.03;;;22.50;57.90;;;;;;5026802;28;20532;-69
2022/04/20 10:46:06;;;;;;;3.57;3.27;;;22.90;56.60;;;;;;5026320;28;20457;-70
2022/04/20 10:48:49;;;;;;;3.47;3.07;;;22.40;55.80;;;;;;5027002;28;20464;-69
2022/04/20 10:51:17;;;;;;;3.63;2.90;;;21.80;56.40;;;;;;5027478;28;20516;-69
2022/04/20 10:53:45;;;;;;;3.00;2.73;;;22.10;56.40;;;;;;5026518;28;20460;-69
2022/04/20 10:56:12;;;;;;;5.13;3.10;;;22.30;56.80;;;;;;5026510;28;20468;-69
2022/04/20 10:59:08;;;;;;;6.90;3.67;;;22.90;56.50;;;;;;5026499;28;20527;-69
2022/04/20 11:02:09;;;;;;;2.90;2.70;;;23.40;55.70;;;;;;5027176;28;20492;-69
2022/04/20 11:04:41;;;;;;;3.50;3.20;;;23.50;54.10;;;;;;5025446;28;20580;-68
2022/04/20 11:07:16;;;;;;;4.40;2.80;;;24.10;56.20;;;;;;5027045;28;21019;-68
2022/04/20 11:09:57;;;;;;;4.63;4.30;;;24.60;55.20;;;;;;5025239;28;20506;-70
2022/04/20 11:18:39;;;;;;;3.83;3.17;;;24.60;53.90;;;;;;4968949;28;20477;-72
2022/04/20 11:21:19;;;;;;;3.23;2.93;;;23.70;53.20;;;;;;5026869;28;20485;-71
2022/04/20 11:23:55;;;;;;;3.43;3.13;;;23.50;55.80;;;;;;5025939;28;20458;-72
2022/04/20 11:26:24;;;;;;;3.10;2.80;;;24.00;54.50;;;;;;5026342;28;20489;-71
2022/04/20 11:28:52;;;;;;;3.80;3.20;;;24.30;51.80;;;;;;5026421;28;20496;-70
2022/04/20 11:31:19;;;;;;;3.30;3.00;;;23.90;54.60;;;;;;5026592;28;20480;-71
2022/04/20 11:33:46;;;;;;;3.37;3.07;;;23.70;52.60;;;;;;5024141;28;20472;-71
2022/04/20 11:36:15;;;;;;;4.63;2.70;;;23.60;53.60;;;;;;5026992;28;20464;-70
2022/04/20 11:38:44;;;;;;;3.90;2.90;;;24.30;55.00;;;;;;5026728;28;20504;-70
2022/04/20 11:41:11;;;;;;;3.37;3.03;;;24.40;53.80;;;;;;5027895;28;20457;-71
2022/04/20 11:43:38;;;;;;;3.33;3.00;;;24.20;53.50;;;;;;5023592;28;20476;-71
2022/04/20 11:46:07;;;;;;;3.30;3.00;;;24.20;55.10;;;;;;5025667;28;20471;-70
2022/04/20 11:48:36;;;;;;;3.37;3.07;;;24.40;52.30;;;;;;5025701;28;20472;-70
2022/04/20 11:51:04;;;;;;;3.37;3.07;;;24.80;53.80;;;;;;5025448;28;20480;-70
2022/04/20 11:53:38;;;;;;;3.40;3.07;;;24.70;52.90;;;;;;5028532;28;20881;-70
2022/04/20 11:56:07;;;;;;;3.83;3.33;;;23.70;50.20;;;;;;5030615;28;20468;-70
2022/04/20 11:58:34;;;;;;;2.80;2.60;;;23.40;52.90;;;;;;5029484;28;20464;-70
2022/04/20 12:01:03;;;;;;;3.90;3.50;;;23.90;55.10;;;;;;5030777;28;20835;-75
2022/04/20 12:03:31;;;;;;;3.23;2.93;;;24.00;51.00;;;;;;5029422;28;20464;-71
2022/04/20 12:06:05;;;;;;;3.23;2.93;;;23.60;53.20;;;;;;5028364;28;20460;-72
2022/04/20 12:08:33;;;;;;;3.77;3.47;;;23.30;53.80;;;;;;5030874;28;20464;-71
2022/04/20 12:11:06;;;;;;;3.53;3.23;;;23.00;51.70;;;;;;5030522;28;20480;-72
2022/04/20 12:13:33;;;;;;;3.53;3.23;;;23.10;55.40;;;;;;5029752;28;20457;-71
2022/04/20 12:16:01;;;;;;;5.20;3.47;;;23.50;53.60;;;;;;5028419;28;20665;-77
2022/04/20 12:18:29;;;;;;;3.30;3.00;;;23.90;53.80;;;;;;5031025;28;20456;-73
2022/04/20 12:20:56;;;;;;;4.33;3.93;;;24.00;52.60;;;;;;5032188;28;20460;-74
2022/04/20 12:23:24;;;;;;;5.47;3.23;;;24.20;53.70;;;;;;5031648;28;20469;-74
2022/04/20 12:25:53;;;;;;;4.27;3.43;;;24.00;53.40;;;;;;5030814;28;20588;-74
2022/04/20 12:31:08;;;;;;;3.83;3.53;;;23.80;55.30;;;;;;5118253;22;20594;-71
2022/04/20 12:33:37;;;;;;;4.00;3.70;;;24.40;53.40;;;;;;5033011;28;20867;-72
2022/04/20 12:36:06;;;;;;;3.37;3.07;;;24.90;50.30;;;;;;5034430;28;20459;-71
2022/04/20 12:38:42;;;;;;;3.17;2.83;;;24.80;52.60;;;;;;5035042;28;20479;-71
2022/04/20 12:41:41;;;;;;;3.67;3.37;;;24.80;52.90;;;;;;5035604;28;20479;-72
2022/04/20 12:44:38;;;;;;;3.43;2.97;;;24.80;52.60;;;;;;5036227;28;20458;-72
2022/04/20 12:47:48;;;;;;;4.00;3.00;;;24.90;53.30;;;;;;5034442;28;20472;-73
2022/04/20 12:50:27;;;;;;;3.67;3.37;;;25.30;53.80;;;;;;5032866;28;20456;-72
2022/04/20 12:53:01;;;;;;;3.30;3.00;;;25.60;51.70;;;;;;5035562;28;20567;-71
2022/04/20 12:55:36;;;;;;;3.07;2.87;;;25.60;51.70;;;;;;5032101;28;20448;-74
2022/04/20 13:03:35;;;;;;;4.03;3.70;;;25.20;50.80;;;;;;5035294;28;20443;-79
2022/04/20 13:06:03;;;;;;;3.93;3.17;;;24.70;50.90;;;;;;5030302;28;20460;-72
2022/04/20 13:08:30;;;;;;;3.47;3.27;;;23.70;51.50;;;;;;5030339;28;20952;-72
2022/04/20 13:10:57;;;;;;;4.03;3.23;;;23.30;53.40;;;;;;5031130;28;20547;-71
2022/04/20 13:13:25;;;;;;;3.43;3.10;;;23.30;52.80;;;;;;5030759;28;20457;-71
2022/04/20 13:15:53;;;;;;;4.00;3.37;;;23.80;53.20;;;;;;5030953;28;20460;-71
2022/04/20 13:18:20;;;;;;;3.60;3.30;;;24.20;53.30;;;;;;5029630;28;20480;-70
2022/04/20 13:20:47;;;;;;;3.50;3.20;;;24.40;51.00;;;;;;5031069;28;20457;-75
2022/04/20 13:23:14;;;;;;;3.53;3.23;;;24.60;50.80;;;;;;5030408;28;20823;-74
2022/04/20 13:28:26;;;;;;;3.40;3.10;;;23.80;52.80;;;;;;5029590;28;20439;-70
2022/04/20 13:30:55;;;;;;;3.10;2.80;;;23.40;52.80;;;;;;5029482;28;20470;-70
2022/04/20 13:33:22;;;;;;;3.47;3.17;;;23.60;53.50;;;;;;5030035;28;20495;-70
2022/04/20 13:35:52;;;;;;;3.10;2.90;;;23.70;51.10;;;;;;5031144;28;20464;-70
2022/04/20 13:38:18;;;;;;;3.60;2.80;;;23.40;52.40;;;;;;5030283;28;20480;-71